createdAt,value
2019-02-22T00:01:49.351Z,7.30
2019-02-22T00:04:19.577Z,7.30
2019-02-22T00:06:49.844Z,7.30
2019-02-22T00:09:20.056Z,7.40
2019-02-22T00:11:50.135Z,7.40
2019-02-22T00:14:20.847Z,7.40
2019-02-22T00:16:51.207Z,7.30
2019-02-22T00:19:21.289Z,7.30
2019-02-22T00:21:51.377Z,7.30
2019-02-22T00:24:21.461Z,7.30
2019-02-22T00:26:51.826Z,7.30
2019-02-22T00:29:21.900Z,7.30
2019-02-22T00:31:52.060Z,7.20
2019-02-22T00:34:23.829Z,7.20
2019-02-22T00:36:54.214Z,7.10
2019-02-22T00:39:24.527Z,7.10
2019-02-22T00:41:54.704Z,7.20
2019-02-22T00:44:25.067Z,7.20
2019-02-22T00:46:55.249Z,7.20
2019-02-22T00:49:26.308Z,7.10
2019-02-22T00:51:56.383Z,7.20
2019-02-22T00:54:26.538Z,7.30
2019-02-22T00:56:56.691Z,7.60
2019-02-22T00:59:27.053Z,7.60
2019-02-22T01:01:57.135Z,7.60
2019-02-22T01:04:27.483Z,7.50
2019-02-22T01:06:57.579Z,7.40
2019-02-22T01:09:27.684Z,7.50
2019-02-22T01:11:57.832Z,7.50
2019-02-22T01:14:27.987Z,7.30
2019-02-22T01:16:58.113Z,7.40
2019-02-22T01:19:28.177Z,7.40
2019-02-22T01:21:58.484Z,7.40
2019-02-22T01:24:28.593Z,7.30
2019-02-22T01:26:58.700Z,7.30
2019-02-22T01:29:28.856Z,7.30
2019-02-22T01:31:59.010Z,7.30
2019-02-22T01:34:29.092Z,7.20
2019-02-22T01:36:59.178Z,7.20
2019-02-22T01:39:29.247Z,7.10
2019-02-22T01:41:59.966Z,7.10
2019-02-22T01:44:30.179Z,7.10
2019-02-22T01:47:00.329Z,7.10
2019-02-22T01:49:30.732Z,7.00
2019-02-22T01:52:00.953Z,7.00
2019-02-22T01:54:31.096Z,7.00
2019-02-22T01:57:01.282Z,7.00
2019-02-22T01:59:31.738Z,7.00
2019-02-22T02:02:02.984Z,7.10
2019-02-22T02:04:34.059Z,7.10
2019-02-22T02:07:04.524Z,7.20
2019-02-22T02:09:34.895Z,7.10
2019-02-22T02:12:04.999Z,7.10
2019-02-22T02:14:35.223Z,7.10
2019-02-22T02:17:05.300Z,7.20
2019-02-22T02:19:36.755Z,7.10
2019-02-22T02:22:07.007Z,7.10
2019-02-22T02:24:37.093Z,7.10
2019-02-22T02:27:07.271Z,7.20
2019-02-22T02:29:37.308Z,7.20
2019-02-22T02:32:07.403Z,7.20
2019-02-22T02:34:37.787Z,7.20
2019-02-22T02:37:08.006Z,7.20
2019-02-22T02:39:38.116Z,7.20
2019-02-22T02:42:08.209Z,7.20
2019-02-22T02:44:38.399Z,7.20
2019-02-22T02:47:08.592Z,7.20
2019-02-22T02:49:38.937Z,7.20
2019-02-22T02:52:09.084Z,7.20
2019-02-22T02:54:40.715Z,7.20
2019-02-22T02:57:11.113Z,7.20
2019-02-22T02:59:41.199Z,7.10
2019-02-22T03:02:19.953Z,7.00
2019-02-22T03:04:50.146Z,6.90
2019-02-22T03:07:38.028Z,6.90
2019-02-22T03:10:08.682Z,6.90
2019-02-22T03:12:38.749Z,6.80
2019-02-22T03:15:10.781Z,6.70
2019-02-22T03:17:41.163Z,6.80
2019-02-22T03:20:11.283Z,6.70
2019-02-22T03:22:41.479Z,6.70
2019-02-22T03:25:11.845Z,6.80
2019-02-22T03:27:42.260Z,6.80
2019-02-22T03:30:12.464Z,6.90
2019-02-22T03:32:42.636Z,7.00
2019-02-22T03:35:12.686Z,7.00
2019-02-22T03:37:42.805Z,6.90
2019-02-22T03:40:13.171Z,6.90
2019-02-22T03:42:45.154Z,6.80
2019-02-22T03:45:15.447Z,6.80
2019-02-22T03:47:45.681Z,6.80
2019-02-22T03:50:15.795Z,6.70
2019-02-22T03:52:49.467Z,6.70
2019-02-22T03:55:19.741Z,6.60
2019-02-22T03:57:49.919Z,6.60
2019-02-22T04:00:20.331Z,6.50
2019-02-22T04:02:50.421Z,6.50
2019-02-22T04:05:20.523Z,6.50
2019-02-22T04:07:50.593Z,6.50
2019-02-22T04:10:20.848Z,6.50
2019-02-22T04:12:50.956Z,6.50
2019-02-22T04:15:20.949Z,6.50
2019-02-22T04:17:51.364Z,6.50
2019-02-22T04:20:21.600Z,6.50
2019-02-22T04:22:51.790Z,6.40
2019-02-22T04:25:21.871Z,6.50
2019-02-22T04:27:52.101Z,6.40
2019-02-22T04:30:22.380Z,6.40
2019-02-22T04:32:52.487Z,6.40
2019-02-22T04:35:22.565Z,6.40
2019-02-22T04:37:52.640Z,6.40
2019-02-22T04:40:22.814Z,6.40
2019-02-22T04:42:52.936Z,6.40
2019-02-22T04:45:22.899Z,6.40
2019-02-22T04:47:53.047Z,6.40
2019-02-22T04:50:23.119Z,6.40
2019-02-22T04:52:53.906Z,6.30
2019-02-22T04:55:24.050Z,6.30
2019-02-22T04:57:54.148Z,6.30
2019-02-22T05:00:24.579Z,6.30
2019-02-22T05:03:00.498Z,6.40
2019-02-22T05:05:30.853Z,6.40
2019-02-22T05:08:01.054Z,6.40
2019-02-22T05:10:33.983Z,6.40
2019-02-22T05:13:04.168Z,6.40
2019-02-22T05:15:34.185Z,6.40
2019-02-22T05:18:04.355Z,6.40
2019-02-22T05:20:34.849Z,6.40
2019-02-22T05:23:07.450Z,6.40
2019-02-22T05:25:37.870Z,6.40
2019-02-22T05:28:07.973Z,6.40
2019-02-22T05:30:38.157Z,6.40
2019-02-22T05:33:08.313Z,6.50
2019-02-22T05:35:38.675Z,6.50
2019-02-22T05:38:08.907Z,6.40
2019-02-22T05:40:39.117Z,6.40
2019-02-22T05:43:09.201Z,6.40
2019-02-22T05:45:39.297Z,6.40
2019-02-22T05:48:12.955Z,6.40
2019-02-22T05:50:43.110Z,6.40
2019-02-22T05:53:13.258Z,6.30
2019-02-22T05:55:44.423Z,6.30
2019-02-22T05:58:14.906Z,6.30
2019-02-22T06:00:45.004Z,6.30
2019-02-22T06:03:16.174Z,6.30
2019-02-22T06:05:46.360Z,6.30
2019-02-22T06:08:16.464Z,6.30
2019-02-22T06:10:47.031Z,6.30
2019-02-22T06:13:17.164Z,6.30
2019-02-22T06:15:47.253Z,6.40
2019-02-22T06:18:17.440Z,6.40
2019-02-22T06:20:47.509Z,6.30
2019-02-22T06:23:17.671Z,6.30
2019-02-22T06:25:48.258Z,6.30
2019-02-22T06:28:18.470Z,6.30
2019-02-22T06:30:48.664Z,6.30
2019-02-22T06:33:18.907Z,6.30
2019-02-22T06:35:49.119Z,6.30
2019-02-22T06:38:19.363Z,6.30
2019-02-22T06:40:49.822Z,6.30
2019-02-22T06:43:23.039Z,6.30
2019-02-22T06:45:54.292Z,6.30
2019-02-22T06:48:24.361Z,6.30
2019-02-22T06:50:54.595Z,6.30
2019-02-22T06:53:24.954Z,6.30
2019-02-22T06:55:55.057Z,6.40
2019-02-22T06:58:25.201Z,6.40
2019-02-22T07:00:55.283Z,6.30
2019-02-22T07:03:25.466Z,6.40
2019-02-22T07:05:55.637Z,6.40
2019-02-22T07:08:26.069Z,6.40
2019-02-22T07:11:08.911Z,6.40
2019-02-22T07:13:39.172Z,6.40
2019-02-22T07:16:09.309Z,6.40
2019-02-22T07:18:39.393Z,6.40
2019-02-22T07:21:09.489Z,6.40
2019-02-22T07:23:39.608Z,6.40
2019-02-22T07:26:09.696Z,6.40
2019-02-22T07:28:39.869Z,6.40
2019-02-22T07:31:10.265Z,6.40
2019-02-22T07:33:40.849Z,6.40
2019-02-22T07:36:10.979Z,6.40
2019-02-22T07:38:41.396Z,6.40
2019-02-22T07:41:11.563Z,6.40
2019-02-22T07:43:41.782Z,6.40
2019-02-22T07:46:11.870Z,6.40
2019-02-22T07:48:42.245Z,6.40
2019-02-22T07:51:12.415Z,6.40
2019-02-22T07:53:42.619Z,6.40
2019-02-22T07:56:12.701Z,6.40
2019-02-22T07:58:44.954Z,6.40
2019-02-22T08:01:15.589Z,6.40
2019-02-22T08:03:45.800Z,6.40
2019-02-22T08:06:15.936Z,6.30
2019-02-22T08:08:48.434Z,6.30
2019-02-22T08:11:18.874Z,6.40
2019-02-22T08:13:48.959Z,6.30
2019-02-22T08:16:19.671Z,6.40
2019-02-22T08:19:00.631Z,6.40
2019-02-22T08:21:21.700Z,6.40
2019-02-22T08:23:51.971Z,6.40
2019-02-22T08:26:22.392Z,6.40
2019-02-22T08:28:52.572Z,6.40
2019-02-22T08:31:22.777Z,6.40
2019-02-22T08:33:52.962Z,6.50
2019-02-22T08:36:23.201Z,6.50
2019-02-22T08:38:53.694Z,6.60
2019-02-22T08:41:23.855Z,6.60
2019-02-22T08:43:53.966Z,6.60
2019-02-22T08:46:24.354Z,6.70
2019-02-22T08:48:54.581Z,6.70
2019-02-22T08:51:24.770Z,6.80
2019-02-22T08:53:54.929Z,6.80
2019-02-22T08:56:24.992Z,6.90
2019-02-22T08:58:55.257Z,6.90
2019-02-22T09:01:26.681Z,6.90
2019-02-22T09:03:57.174Z,6.90
2019-02-22T09:06:27.259Z,6.80
2019-02-22T09:08:57.516Z,6.90
2019-02-22T09:11:27.636Z,6.90
2019-02-22T09:13:57.806Z,6.90
2019-02-22T09:16:29.194Z,6.80
2019-02-22T09:18:59.369Z,6.80
2019-02-22T09:21:29.643Z,6.80
2019-02-22T09:23:59.933Z,6.90
2019-02-22T09:26:30.221Z,6.90
2019-02-22T09:29:00.471Z,6.90
2019-02-22T09:31:30.744Z,6.90
2019-02-22T09:34:00.845Z,6.90
2019-02-22T09:36:31.139Z,6.90
2019-02-22T09:39:01.244Z,6.90
2019-02-22T09:41:32.952Z,7.00
2019-02-22T09:44:03.082Z,7.00
2019-02-22T09:46:35.621Z,7.00
2019-02-22T09:49:06.074Z,7.00
2019-02-22T09:51:45.976Z,7.10
2019-02-22T09:54:16.316Z,7.10
2019-02-22T09:56:46.500Z,7.10
2019-02-22T09:59:16.918Z,7.10
2019-02-22T10:01:47.018Z,7.20
2019-02-22T10:04:17.266Z,7.30
2019-02-22T10:06:47.510Z,7.30
2019-02-22T10:09:18.088Z,7.30
2019-02-22T10:11:48.352Z,7.40
2019-02-22T10:14:18.561Z,7.40
2019-02-22T10:16:48.936Z,7.40
2019-02-22T10:19:19.075Z,7.40
2019-02-22T10:21:49.337Z,7.40
2019-02-22T10:24:19.447Z,7.50
2019-02-22T10:26:49.566Z,7.40
2019-02-22T10:29:20.071Z,7.50
2019-02-22T10:31:50.561Z,7.50
2019-02-22T10:34:21.128Z,7.60
2019-02-22T10:36:51.259Z,7.60
2019-02-22T10:39:21.364Z,7.50
2019-02-22T10:41:51.707Z,7.50
2019-02-22T10:44:22.051Z,7.60
2019-02-22T10:46:52.156Z,7.60
2019-02-22T10:49:22.305Z,7.70
2019-02-22T10:52:04.204Z,7.80
2019-02-22T10:54:34.489Z,7.80
2019-02-22T10:57:05.376Z,7.90
2019-02-22T10:59:36.801Z,7.80
2019-02-22T11:02:07.219Z,7.90
2019-02-22T11:04:37.324Z,7.80
2019-02-22T11:07:07.557Z,7.80
2019-02-22T11:09:37.766Z,7.80
2019-02-22T11:12:08.259Z,7.90
2019-02-22T11:14:38.406Z,7.90
2019-02-22T11:17:08.560Z,8.00
2019-02-22T11:19:38.648Z,8.10
2019-02-22T11:22:08.740Z,8.10
2019-02-22T11:24:38.846Z,8.20
2019-02-22T11:27:09.234Z,8.20
2019-02-22T11:29:39.580Z,8.20
2019-02-22T11:32:09.648Z,8.30
2019-02-22T11:34:40.054Z,8.30
2019-02-22T11:37:10.563Z,8.30
2019-02-22T11:39:40.724Z,8.30
2019-02-22T11:42:11.401Z,8.20
2019-02-22T11:44:41.522Z,8.40
2019-02-22T11:47:11.720Z,8.50
2019-02-22T11:49:41.823Z,8.60
2019-02-22T11:52:11.904Z,8.60
2019-02-22T11:54:42.257Z,8.70
2019-02-22T11:57:12.999Z,8.70
2019-02-22T11:59:43.400Z,8.70
2019-02-22T12:02:13.565Z,8.90
2019-02-22T12:04:43.864Z,8.90
2019-02-22T12:07:14.090Z,8.90
2019-02-22T12:09:44.441Z,8.90
2019-02-22T12:12:14.755Z,8.80
2019-02-22T12:14:51.611Z,8.90
2019-02-22T12:17:16.736Z,9.00
2019-02-22T12:19:47.083Z,9.20
2019-02-22T12:22:17.592Z,9.30
2019-02-22T12:24:47.701Z,9.40
2019-02-22T12:27:17.818Z,9.30
2019-02-22T12:29:48.087Z,9.40
2019-02-22T12:32:18.548Z,9.40
2019-02-22T12:34:48.875Z,9.60
2019-02-22T12:37:20.535Z,9.50
2019-02-22T12:39:50.819Z,9.30
2019-02-22T12:42:22.392Z,9.30
2019-02-22T12:45:02.552Z,9.40
2019-02-22T12:47:24.629Z,9.70
2019-02-22T12:49:55.045Z,10.00
2019-02-22T12:52:25.542Z,10.40
2019-02-22T12:54:55.833Z,10.10
2019-02-22T12:57:25.994Z,9.80
2019-02-22T12:59:56.108Z,9.70
2019-02-22T13:02:26.338Z,9.60
2019-02-22T13:04:56.734Z,9.60
2019-02-22T13:07:26.869Z,9.40
2019-02-22T13:09:57.090Z,9.30
2019-02-22T13:12:27.330Z,9.20
2019-02-22T13:14:57.768Z,9.00
2019-02-22T13:17:30.862Z,8.90
2019-02-22T13:19:59.828Z,8.80
2019-02-22T13:22:30.028Z,8.70
2019-02-22T13:25:09.834Z,8.70
2019-02-22T13:27:40.078Z,8.70
2019-02-22T13:30:11.486Z,8.70
2019-02-22T13:32:41.697Z,8.80
2019-02-22T13:35:12.212Z,8.90
2019-02-22T13:37:43.668Z,9.00
2019-02-22T13:40:14.910Z,9.10
2019-02-22T13:42:45.007Z,9.20
2019-02-22T13:45:25.990Z,9.30
2019-02-22T13:47:47.267Z,9.40
2019-02-22T13:50:17.399Z,9.70
2019-02-22T13:52:48.124Z,10.00
2019-02-22T13:55:18.476Z,10.40
2019-02-22T13:57:48.847Z,10.20
2019-02-22T14:00:19.021Z,10.00
2019-02-22T14:02:49.278Z,9.80
2019-02-22T14:05:19.486Z,9.80
2019-02-22T14:07:53.812Z,9.80
2019-02-22T14:10:24.536Z,9.80
2019-02-22T14:12:54.893Z,10.00
2019-02-22T14:15:25.034Z,10.40
2019-02-22T14:17:55.155Z,11.00
2019-02-22T14:20:25.283Z,11.40
2019-02-22T14:22:55.504Z,11.50
2019-02-22T14:25:25.621Z,11.10
2019-02-22T14:27:55.941Z,10.30
2019-02-22T14:30:26.464Z,9.90
2019-02-22T14:32:56.718Z,9.60
2019-02-22T14:35:26.996Z,9.70
2019-02-22T14:37:57.211Z,9.60
2019-02-22T14:40:29.678Z,9.80
2019-02-22T14:43:00.081Z,9.60
2019-02-22T14:45:30.327Z,9.50
2019-02-22T14:48:00.485Z,9.30
2019-02-22T14:50:30.697Z,9.10
2019-02-22T14:53:01.060Z,9.00
2019-02-22T14:55:31.300Z,8.90
2019-02-22T14:58:01.444Z,8.90
2019-02-22T15:00:31.633Z,8.90
2019-02-22T15:03:01.903Z,8.90
2019-02-22T15:05:32.219Z,8.90
2019-02-22T15:08:02.450Z,9.00
2019-02-22T15:10:32.962Z,8.90
2019-02-22T15:13:03.267Z,8.80
2019-02-22T15:16:00.189Z,8.80
2019-02-22T15:18:24.372Z,8.80
2019-02-22T15:20:54.671Z,8.80
2019-02-22T15:23:24.854Z,8.80
2019-02-22T15:25:55.210Z,8.90
2019-02-22T15:28:26.453Z,8.80
2019-02-22T15:30:56.915Z,8.80
2019-02-22T15:33:27.282Z,8.80
2019-02-22T15:35:57.560Z,8.70
2019-02-22T15:38:27.730Z,8.70
2019-02-22T15:40:59.782Z,8.70
2019-02-22T15:43:30.247Z,8.60
2019-02-22T15:46:11.516Z,8.60
2019-02-22T15:48:32.387Z,8.70
2019-02-22T15:51:05.279Z,8.70
2019-02-22T15:53:34.458Z,8.60
2019-02-22T15:56:04.554Z,8.70
2019-02-22T15:58:34.733Z,8.70
2019-02-22T16:01:04.942Z,8.70
2019-02-22T16:03:59.407Z,8.70
2019-02-22T16:06:32.213Z,8.60
2019-02-22T16:09:01.702Z,8.50
2019-02-22T16:11:33.715Z,8.40
2019-02-22T16:14:07.017Z,8.30
2019-02-22T16:16:36.657Z,8.30
2019-02-22T16:19:06.814Z,8.20
2019-02-22T16:21:36.912Z,8.10
2019-02-22T16:24:07.085Z,8.00
2019-02-22T16:26:37.537Z,8.00
2019-02-22T16:29:07.636Z,7.90
2019-02-22T16:31:37.935Z,7.90
2019-02-22T16:34:08.076Z,7.90
2019-02-22T16:36:38.178Z,7.80
2019-02-22T16:39:08.651Z,7.80
2019-02-22T16:41:40.566Z,7.70
2019-02-22T16:44:10.689Z,7.60
2019-02-22T16:46:42.739Z,7.60
2019-02-22T16:49:12.933Z,7.60
2019-02-22T16:51:44.482Z,7.60
2019-02-22T16:54:15.173Z,7.50
2019-02-22T16:56:45.328Z,7.40
2019-02-22T16:59:15.796Z,7.40
2019-02-22T17:01:45.887Z,7.40
2019-02-22T17:04:18.710Z,7.30
2019-02-22T17:06:48.099Z,7.20
2019-02-22T17:09:18.358Z,7.20
2019-02-22T17:11:48.753Z,7.10
2019-02-22T17:14:18.939Z,7.00
2019-02-22T17:16:49.338Z,7.00
2019-02-22T17:19:20.865Z,7.00
2019-02-22T17:21:51.092Z,7.00
2019-02-22T17:24:21.240Z,7.00
2019-02-22T17:26:51.632Z,7.00
2019-02-22T17:29:21.944Z,7.10
2019-02-22T17:31:52.049Z,7.00
2019-02-22T17:34:22.385Z,7.10
2019-02-22T17:36:52.756Z,7.10
2019-02-22T17:39:22.953Z,7.00
2019-02-22T17:41:53.168Z,7.10
2019-02-22T17:44:23.426Z,7.00
2019-02-22T17:46:57.589Z,7.00
2019-02-22T17:49:25.477Z,7.00
2019-02-22T17:51:55.876Z,7.00
2019-02-22T17:54:25.963Z,7.00
2019-02-22T17:56:56.095Z,6.90
2019-02-22T17:59:26.263Z,6.90
2019-02-22T18:01:56.490Z,6.90
2019-02-22T18:04:26.858Z,6.80
2019-02-22T18:06:57.084Z,6.80
2019-02-22T18:09:27.179Z,6.80
2019-02-22T18:11:57.361Z,6.80
2019-02-22T18:14:27.533Z,6.70
2019-02-22T18:17:07.984Z,6.70
2019-02-22T18:19:32.613Z,6.70
2019-02-22T18:22:03.105Z,6.70
2019-02-22T18:24:33.291Z,6.70
2019-02-22T18:27:03.381Z,6.70
2019-02-22T18:29:35.728Z,6.60
2019-02-22T18:32:05.590Z,6.70
2019-02-22T18:34:36.057Z,6.90
2019-02-22T18:37:07.258Z,7.10
2019-02-22T18:39:37.386Z,7.10
2019-02-22T18:42:07.456Z,7.30
2019-02-22T18:44:37.752Z,7.50
2019-02-22T18:47:18.756Z,7.60
2019-02-22T18:49:40.079Z,7.50
2019-02-22T18:52:10.504Z,7.50
2019-02-22T18:54:40.714Z,7.40
2019-02-22T18:57:12.311Z,7.40
2019-02-22T18:59:42.400Z,7.60
2019-02-22T19:02:12.655Z,7.60
2019-02-22T19:04:43.244Z,7.50
2019-02-22T19:07:13.830Z,7.40
2019-02-22T19:09:44.123Z,7.40
2019-02-22T19:12:14.611Z,7.30
2019-02-22T19:14:44.783Z,7.50
2019-02-22T19:17:15.209Z,7.40
2019-02-22T19:19:45.303Z,7.30
2019-02-22T19:22:15.536Z,7.30
2019-02-22T19:24:45.659Z,7.30
2019-02-22T19:27:15.913Z,7.40
2019-02-22T19:29:46.313Z,7.30
2019-02-22T19:32:16.732Z,7.20
2019-02-22T19:34:46.861Z,7.30
2019-02-22T19:37:17.127Z,7.20
2019-02-22T19:39:47.677Z,7.00
2019-02-22T19:42:17.867Z,7.10
2019-02-22T19:44:48.051Z,7.30
2019-02-22T19:47:18.578Z,7.10
2019-02-22T19:49:48.719Z,6.90
2019-02-22T19:52:18.985Z,6.90
2019-02-22T19:54:49.474Z,6.90
2019-02-22T19:57:19.702Z,6.80
2019-02-22T19:59:52.828Z,6.60
2019-02-22T20:02:22.968Z,6.60
2019-02-22T20:04:53.495Z,6.70
2019-02-22T20:07:23.664Z,6.80
2019-02-22T20:09:53.877Z,6.90
2019-02-22T20:12:24.071Z,6.90
2019-02-22T20:14:54.509Z,6.70
2019-02-22T20:17:24.716Z,6.50
2019-02-22T20:19:54.974Z,6.40
2019-02-22T20:22:25.085Z,6.50
2019-02-22T20:24:56.491Z,6.50
2019-02-22T20:27:26.664Z,6.80
2019-02-22T20:29:56.796Z,6.50
2019-02-22T20:32:26.965Z,6.50
2019-02-22T20:34:57.095Z,6.60
2019-02-22T20:37:27.203Z,6.70
2019-02-22T20:39:57.606Z,6.50
2019-02-22T20:42:28.978Z,6.40
2019-02-22T20:44:59.253Z,6.50
2019-02-22T20:47:29.632Z,6.50
2019-02-22T20:49:59.852Z,6.60
2019-02-22T20:52:30.057Z,6.40
2019-02-22T20:55:00.332Z,6.40
2019-02-22T20:57:31.083Z,6.40
2019-02-22T21:00:01.465Z,6.40
2019-02-22T21:02:31.979Z,6.20
2019-02-22T21:05:02.237Z,6.10
2019-02-22T21:07:33.316Z,6.20
2019-02-22T21:10:04.139Z,6.00
2019-02-22T21:12:34.371Z,5.90
2019-02-22T21:15:05.219Z,5.70
2019-02-22T21:17:35.356Z,5.40
2019-02-22T21:20:06.713Z,5.40
2019-02-22T21:22:37.040Z,5.30
2019-02-22T21:25:09.132Z,5.00
2019-02-22T21:27:39.356Z,4.90
2019-02-22T21:30:11.523Z,4.90
2019-02-22T21:32:43.060Z,5.00
2019-02-22T21:35:13.799Z,4.80
2019-02-22T21:37:44.081Z,4.70
2019-02-22T21:40:15.987Z,4.40
2019-02-22T21:42:46.099Z,4.20
2019-02-22T21:45:16.148Z,4.20
2019-02-22T21:47:54.086Z,4.00
2019-02-22T21:50:18.376Z,3.90
2019-02-22T21:52:48.560Z,4.00
2019-02-22T21:55:19.258Z,4.10
2019-02-22T21:57:49.864Z,4.00
2019-02-22T22:00:20.081Z,3.90
2019-02-22T22:02:51.040Z,3.80
2019-02-22T22:05:21.321Z,3.80
2019-02-22T22:07:51.496Z,3.60
2019-02-22T22:10:23.111Z,3.60
2019-02-22T22:12:53.197Z,3.40
2019-02-22T22:15:23.241Z,3.50
2019-02-22T22:17:53.454Z,3.70
2019-02-22T22:20:23.669Z,3.60
2019-02-22T22:22:54.183Z,3.60
2019-02-22T22:25:24.313Z,3.40
2019-02-22T22:27:56.330Z,3.30
2019-02-22T22:30:26.469Z,3.50
2019-02-22T22:32:56.684Z,3.40
2019-02-22T22:35:27.105Z,3.20
2019-02-22T22:37:57.264Z,3.50
2019-02-22T22:40:27.641Z,3.30
2019-02-22T22:42:59.086Z,3.30
2019-02-22T22:45:29.441Z,3.40
2019-02-22T22:47:59.777Z,3.00
2019-02-22T22:50:30.241Z,3.10
2019-02-22T22:53:00.367Z,3.10
2019-02-22T22:55:31.158Z,3.40
2019-02-22T22:58:01.422Z,3.40
2019-02-22T23:00:56.620Z,3.20
2019-02-22T23:03:26.889Z,3.00
2019-02-22T23:05:57.504Z,2.90
2019-02-22T23:08:28.148Z,3.10
2019-02-22T23:10:58.359Z,3.50
2019-02-22T23:13:28.546Z,3.40
2019-02-22T23:15:59.126Z,3.00
2019-02-22T23:18:29.287Z,2.80
2019-02-22T23:20:59.529Z,2.40
2019-02-22T23:23:29.746Z,2.50
2019-02-22T23:26:00.429Z,2.20
2019-02-22T23:28:30.560Z,2.20
2019-02-22T23:31:00.886Z,2.00
2019-02-22T23:33:31.408Z,2.00
2019-02-22T23:36:01.664Z,1.80
2019-02-22T23:38:31.837Z,2.00
2019-02-22T23:41:02.047Z,2.00
2019-02-22T23:43:34.178Z,2.00
2019-02-22T23:46:04.371Z,2.00
2019-02-22T23:48:34.520Z,1.70
2019-02-22T23:51:04.771Z,1.90
2019-02-22T23:53:34.931Z,1.90
2019-02-22T23:56:05.371Z,2.10
2019-02-22T23:58:35.520Z,2.20
